Lancelin, Western Australia

2:08 PM WST on July 26, 2014 (GMT +0800)
Pearce (Military) (YPEA) Elev 148 ft | 31.67 °S, 116.02 °E | Change Station

Current weather conditions updated -24 second ago

Overcast
Overcast
61 °F
Feels Like 61 °F
N
14
Wind Variable Wind from WSW

Today is forecast to be nearly the same temperature as yesterday. Cloudy with rain.

Today
High -- | Low -- °F
--% Chance of Precip.
Yesterday
High -- | Low -- °F
Precip. -- in
7:10 AM 5:40 PM
Waning Crescent, 0% visible
Pressure 30.01 in
Visibility 6.2 miles
Clouds Scattered Clouds 1000 ft
Mostly Cloudy 7300 ft
Overcast 8100 ft
Dew Point 57 °F
Humidity 88%
Rainfall 0.00 in
Snow Depth Not available.
UV 1 out of 12
Pollen Not available.
Air Quality Not available.
Flu Activity Not available.
SPECI YPEA 260609Z AUTO 24012KT 9999 // SCT010 BKN073 OVC081 16/14 Q1016

More Conditions Fewer Conditions

Pressure 30.01 in
Visibility 6.2 miles
Clouds Scattered Clouds 1000 ft
Mostly Cloudy 7300 ft
Overcast 8100 ft
Dew Point 57 °F
Humidity 88%
Rainfall 0.00 in
Snow Depth Not available.
UV 1 out of 12
Pollen Not available.
Air Quality Not available.
Flu Activity Not available.
SPECI YPEA 260609Z AUTO 24012KT 9999 // SCT010 BKN073 OVC081 16/14 Q1016

More Conditions Fewer Conditions

10-Day Weather Forecast

Almanac

Astronomy

Jul. 26, 2014 Rise Set
Actual Time 7:10 AM WST 5:40 PM WST
Civil Twilight 6:44 AM WST 6:06 PM WST
Nautical Twilight 6:15 AM WST 6:35 PM WST
Astronomical Twilight 5:46 AM WST 7:04 PM WST
Moon 6:17 AM WST 5:15 PM WST
Length of Visible Light 11h 21m
Length of Day
10h 30m
Tomorrow will be 1m 14s longer.
Waning Crescent, 0% of the Moon is Illuminated
Today
Waning Crescent
Jul 26
New
Aug 3
First Quarter
Aug 10
Full
Aug 17
Last Quarter

Yesterday's Extremes

Country Highs Country Lows

Community

WunderPhotos

Upload Photos

1,737,524 photos uploaded!

Nearby

Snow Depth

Not available.

Earthquake Activity

City Distance Mag. Time & Date
No recent earthquake activity has been reported nearby.
Minimum magnitude displayed is 2.5.

Coastal Water Temperatures

Place Temperature
No Stations Reporting

Nearby Weather Stations

There are no personal weather stations in this area.